Aloha, Washington
Current Conditions -  °F | °C
As of 9:53 PM on Wednesday 17 Dec 2014 (Local Time) from KHQM Reporting Station
Haze Haze  
Wind Chill: 46°   Ceiling: 1900
Heat Index: 46°   Visibility: 4mi
Dew Point: 45°   Wind: 3mph
Humidity: 96%   Direction: 60°ENE
Pressure: 29.91"   Gusts: NA
Location:  47.1899°N, 124.112°W
Report Text: KHQM 180553Z AUTO 06003KT 4SM BR FEW004 SCT013 OVC019 08/07 A2991 RMK AO2 RAE32 SLP131 P0000 60003 T00780072 10083 20078 51008
Loading
Personal Weather Stations






























Interactive Weather Map New forecast layout! Learn more

10-Day Weather Forecast

Advertisements
Track Severe Weather on mobile